createdAt,value
2022-10-25T00:01:49.674Z,100.00
2022-10-25T00:04:19.039Z,100.00
2022-10-25T00:06:47.341Z,100.00
2022-10-25T00:09:15.834Z,100.00
2022-10-25T00:11:44.189Z,100.00
2022-10-25T00:51:55.698Z,100.00
2022-10-25T00:54:36.566Z,100.00
2022-10-25T00:57:15.978Z,100.00
2022-10-25T00:59:45.660Z,100.00
2022-10-25T01:02:14.715Z,100.00
2022-10-25T01:04:43.183Z,100.00
2022-10-25T01:07:11.799Z,100.00
2022-10-25T01:09:40.407Z,100.00
2022-10-25T01:12:08.743Z,100.00
2022-10-25T01:14:38.187Z,100.00
2022-10-25T01:17:36.040Z,100.00
2022-10-25T01:20:43.743Z,100.00
2022-10-25T01:23:44.040Z,100.00
2022-10-25T01:26:16.382Z,100.00
2022-10-25T01:29:10.748Z,100.00
2022-10-25T01:31:56.014Z,100.00
2022-10-25T01:34:42.589Z,100.00
2022-10-25T01:37:28.135Z,100.00
2022-10-25T01:40:23.419Z,100.00
2022-10-25T01:43:03.365Z,100.00
2022-10-25T01:45:41.287Z,100.00
2022-10-25T01:48:24.514Z,100.00
2022-10-25T01:50:52.828Z,100.00
2022-10-25T01:53:21.221Z,100.00
2022-10-25T01:56:02.390Z,100.00
2022-10-25T01:58:53.548Z,100.00
2022-10-25T02:01:27.540Z,100.00
2022-10-25T02:04:05.995Z,100.00
2022-10-25T02:07:04.804Z,100.00
2022-10-25T02:09:50.352Z,100.00
2022-10-25T02:12:28.441Z,100.00
2022-10-25T02:15:21.643Z,100.00
2022-10-25T02:18:02.030Z,100.00
2022-10-25T02:20:35.142Z,100.00
2022-10-25T02:23:06.972Z,100.00
2022-10-25T02:25:37.556Z,100.00
2022-10-25T02:28:11.117Z,100.00
2022-10-25T02:30:41.722Z,100.00
2022-10-25T02:33:10.104Z,100.00
2022-10-25T02:35:38.679Z,100.00
2022-10-25T02:38:07.048Z,100.00
2022-10-25T02:40:35.684Z,100.00
2022-10-25T02:43:04.404Z,100.00
2022-10-25T02:45:32.773Z,100.00
2022-10-25T02:48:01.099Z,100.00
2022-10-25T02:50:29.683Z,100.00
2022-10-25T02:52:58.021Z,100.00
2022-10-25T02:55:26.482Z,100.00
2022-10-25T02:57:54.864Z,100.00
2022-10-25T03:00:23.236Z,100.00
2022-10-25T03:02:51.601Z,100.00
2022-10-25T03:05:19.944Z,100.00
2022-10-25T03:07:48.261Z,100.00
2022-10-25T03:10:16.677Z,100.00
2022-10-25T03:12:45.304Z,100.00
2022-10-25T03:15:14.467Z,100.00
2022-10-25T03:17:42.870Z,100.00
2022-10-25T03:20:11.720Z,100.00
2022-10-25T03:22:40.081Z,100.00
2022-10-25T03:27:42.353Z,100.00
2022-10-25T03:30:11.093Z,100.00
2022-10-25T03:32:39.369Z,100.00
2022-10-25T03:35:08.420Z,100.00
2022-10-25T03:37:36.949Z,100.00
2022-10-25T03:40:05.590Z,100.00
2022-10-25T03:45:02.465Z,100.00
2022-10-25T03:47:30.814Z,100.00
2022-10-25T03:49:59.227Z,100.00
2022-10-25T03:52:27.609Z,100.00
2022-10-25T03:54:55.960Z,100.00
2022-10-25T03:57:24.441Z,100.00
2022-10-25T03:59:52.754Z,100.00
2022-10-25T04:02:21.133Z,100.00
2022-10-25T04:04:49.481Z,100.00
2022-10-25T04:07:17.913Z,100.00
2022-10-25T04:09:46.718Z,100.00
2022-10-25T04:12:15.171Z,100.00
2022-10-25T04:14:43.536Z,100.00
2022-10-25T04:17:11.892Z,100.00
2022-10-25T04:19:40.283Z,100.00
2022-10-25T04:22:08.676Z,100.00
2022-10-25T04:24:36.984Z,100.00
2022-10-25T04:27:05.545Z,100.00
2022-10-25T04:29:33.991Z,100.00
2022-10-25T04:32:02.304Z,100.00
2022-10-25T04:34:30.700Z,100.00
2022-10-25T04:36:59.109Z,100.00
2022-10-25T04:39:27.454Z,100.00
2022-10-25T04:41:55.800Z,100.00
2022-10-25T04:44:24.217Z,100.00
2022-10-25T04:46:53.135Z,100.00
2022-10-25T04:49:21.491Z,100.00
2022-10-25T04:54:18.154Z,100.00
2022-10-25T04:56:46.556Z,100.00
2022-10-25T04:59:14.636Z,100.00
2022-10-25T05:01:43.066Z,100.00
2022-10-25T05:04:11.434Z,100.00
2022-10-25T05:06:39.776Z,100.00
2022-10-25T05:09:08.119Z,100.00
2022-10-25T05:14:05.324Z,100.00
2022-10-25T05:16:35.171Z,100.00
2022-10-25T05:19:03.332Z,100.00
2022-10-25T05:21:31.697Z,100.00
2022-10-25T05:24:02.049Z,100.00
2022-10-25T05:26:31.504Z,100.00
2022-10-25T05:29:00.290Z,100.00
2022-10-25T05:31:31.341Z,100.00
2022-10-25T05:34:02.334Z,100.00
2022-10-25T05:36:32.819Z,100.00
2022-10-25T05:39:02.286Z,100.00
2022-10-25T05:41:33.389Z,100.00
2022-10-25T05:44:04.820Z,100.00
2022-10-25T05:46:33.165Z,100.00
2022-10-25T05:49:01.616Z,100.00
2022-10-25T05:51:36.322Z,100.00
2022-10-25T05:54:16.201Z,100.00
2022-10-25T05:56:45.035Z,100.00
2022-10-25T05:59:15.026Z,100.00
2022-10-25T06:01:47.615Z,100.00
2022-10-25T06:04:16.727Z,100.00
2022-10-25T06:06:47.342Z,100.00
2022-10-25T06:09:15.991Z,100.00
2022-10-25T06:11:44.131Z,100.00
2022-10-25T06:14:12.722Z,100.00
2022-10-25T06:16:41.103Z,100.00
2022-10-25T06:19:09.335Z,100.00
2022-10-25T06:21:37.898Z,100.00
2022-10-25T06:24:06.444Z,100.00
2022-10-25T06:26:34.771Z,100.00
2022-10-25T06:29:05.339Z,100.00
2022-10-25T06:31:34.170Z,100.00
2022-10-25T06:34:03.681Z,100.00
2022-10-25T06:36:32.682Z,100.00
2022-10-25T06:39:05.398Z,100.00
2022-10-25T06:41:36.925Z,100.00
2022-10-25T06:44:07.184Z,100.00
2022-10-25T06:49:27.714Z,100.00
2022-10-25T06:51:56.170Z,100.00
2022-10-25T06:54:26.785Z,100.00
2022-10-25T06:56:55.557Z,100.00
2022-10-25T06:59:23.988Z,100.00
2022-10-25T07:01:52.559Z,100.00
2022-10-25T07:04:21.042Z,100.00
2022-10-25T07:06:51.534Z,100.00
2022-10-25T07:09:22.779Z,100.00
2022-10-25T07:11:51.178Z,100.00
2022-10-25T07:14:19.607Z,99.47
2022-10-25T07:16:47.981Z,98.97
2022-10-25T07:19:16.410Z,98.22
2022-10-25T07:21:45.181Z,97.93
2022-10-25T07:24:13.546Z,97.63
2022-10-25T07:26:41.927Z,97.08
2022-10-25T07:29:10.555Z,97.04
2022-10-25T07:31:44.273Z,96.88
2022-10-25T07:34:16.871Z,96.24
2022-10-25T07:36:45.356Z,96.09
2022-10-25T07:39:13.713Z,95.47
2022-10-25T07:41:42.074Z,95.31
2022-10-25T07:44:15.923Z,95.27
2022-10-25T07:46:45.349Z,95.01
2022-10-25T07:49:14.330Z,94.94
2022-10-25T07:51:42.791Z,94.78
2022-10-25T07:54:11.279Z,94.48
2022-10-25T07:56:39.659Z,94.19
2022-10-25T07:59:08.062Z,94.00
2022-10-25T08:01:36.796Z,93.28
2022-10-25T08:04:05.446Z,93.22
2022-10-25T08:06:33.806Z,92.77
2022-10-25T08:09:09.778Z,92.31
2022-10-25T08:11:43.233Z,92.21
2022-10-25T08:14:11.767Z,92.07
2022-10-25T08:16:40.150Z,91.29
2022-10-25T08:19:08.760Z,90.99
2022-10-25T08:21:37.151Z,90.29
2022-10-25T08:24:05.854Z,90.02
2022-10-25T08:26:36.828Z,89.84
2022-10-25T08:29:05.649Z,88.82
2022-10-25T08:31:34.083Z,89.02
2022-10-25T08:34:02.496Z,88.55
2022-10-25T08:36:30.930Z,87.70
2022-10-25T08:38:59.269Z,87.26
2022-10-25T08:41:50.952Z,86.17
2022-10-25T08:44:42.662Z,84.29
2022-10-25T08:47:31.971Z,84.10
2022-10-25T08:50:22.103Z,83.82
2022-10-25T08:52:51.429Z,83.12
2022-10-25T08:55:41.629Z,82.74
2022-10-25T08:58:24.964Z,83.51
2022-10-25T09:00:53.389Z,83.24
2022-10-25T09:03:27.074Z,83.15
2022-10-25T09:06:35.979Z,82.65
2022-10-25T09:09:44.456Z,82.58
2022-10-25T09:12:28.601Z,81.87
2022-10-25T09:15:31.707Z,82.60
2022-10-25T09:18:00.083Z,81.52
2022-10-25T09:20:42.934Z,82.31
2022-10-25T09:23:33.597Z,82.17
2022-10-25T09:26:34.617Z,82.55
2022-10-25T09:29:35.219Z,81.97
2022-10-25T09:32:08.701Z,81.78
2022-10-25T09:34:37.499Z,81.65
2022-10-25T09:37:32.604Z,81.86
2022-10-25T09:40:17.994Z,81.60
2022-10-25T09:43:12.638Z,81.24
2022-10-25T09:45:56.207Z,81.38
2022-10-25T09:48:50.402Z,81.43
2022-10-25T09:52:06.329Z,81.38
2022-10-25T09:54:43.365Z,80.73
2022-10-25T09:57:11.749Z,80.81
2022-10-25T09:59:40.153Z,80.53
2022-10-25T10:02:19.151Z,80.87
2022-10-25T10:04:48.026Z,80.79
2022-10-25T10:07:38.160Z,81.19
2022-10-25T10:10:30.371Z,79.96
2022-10-25T10:13:06.842Z,80.07
2022-10-25T10:15:53.362Z,80.44
2022-10-25T10:18:28.204Z,80.71
2022-10-25T10:21:13.321Z,80.52
2022-10-25T10:23:44.348Z,80.42
2022-10-25T10:26:31.377Z,80.46
2022-10-25T10:29:22.855Z,80.48
2022-10-25T10:31:55.010Z,80.44
2022-10-25T10:34:43.793Z,80.79
2022-10-25T10:37:25.872Z,80.13
2022-10-25T10:39:59.987Z,79.89
2022-10-25T10:42:41.324Z,80.04
2022-10-25T10:45:11.337Z,79.09
2022-10-25T10:47:51.169Z,78.77
2022-10-25T10:50:21.941Z,79.57
2022-10-25T10:53:15.003Z,79.70
2022-10-25T10:55:56.157Z,80.89
2022-10-25T10:58:42.829Z,81.51
2022-10-25T11:01:29.790Z,82.31
2022-10-25T11:04:01.070Z,82.95
2022-10-25T11:06:32.608Z,83.50
2022-10-25T11:09:25.011Z,81.94
2022-10-25T11:12:14.875Z,80.46
2022-10-25T11:14:43.416Z,80.14
2022-10-25T11:17:32.236Z,79.72
2022-10-25T11:20:46.950Z,78.73
2022-10-25T11:23:50.434Z,77.24
2022-10-25T11:26:52.940Z,77.71
2022-10-25T11:30:10.379Z,76.51
2022-10-25T11:32:41.277Z,77.85
2022-10-25T11:35:28.154Z,78.24
2022-10-25T11:38:04.120Z,78.95
2022-10-25T11:40:40.080Z,77.58
2022-10-25T11:43:29.002Z,77.05
2022-10-25T11:46:27.329Z,75.88
2022-10-25T11:49:36.929Z,75.85
2022-10-25T11:52:40.943Z,73.84
2022-10-25T11:55:15.362Z,74.23
2022-10-25T11:58:03.166Z,73.37
2022-10-25T12:01:01.751Z,75.29
2022-10-25T12:04:11.605Z,76.11
2022-10-25T12:07:04.022Z,75.04
2022-10-25T12:09:35.102Z,75.96
2022-10-25T12:12:08.542Z,76.23
2022-10-25T12:14:43.357Z,76.75
2022-10-25T12:17:27.507Z,75.23
2022-10-25T12:20:03.015Z,74.18
2022-10-25T12:22:50.460Z,74.81
2022-10-25T12:25:26.235Z,74.60
2022-10-25T12:28:30.895Z,74.43
2022-10-25T12:31:07.035Z,73.01
2022-10-25T12:34:11.715Z,73.16
2022-10-25T12:36:53.081Z,73.15
2022-10-25T12:39:35.298Z,73.29
2022-10-25T12:42:17.904Z,72.43
2022-10-25T12:45:04.889Z,71.68
2022-10-25T12:48:13.280Z,72.39
2022-10-25T12:50:47.470Z,72.31
2022-10-25T12:53:36.598Z,73.17
2022-10-25T12:56:45.365Z,73.87
2022-10-25T12:59:43.877Z,73.94
2022-10-25T13:02:18.542Z,74.38
2022-10-25T13:05:26.186Z,74.13
2022-10-25T13:07:58.622Z,74.30
2022-10-25T13:10:27.437Z,73.42
2022-10-25T13:13:19.675Z,74.18
2022-10-25T13:15:52.101Z,74.58
2022-10-25T13:18:35.660Z,74.92
2022-10-25T13:21:19.031Z,75.30
2022-10-25T13:23:49.469Z,75.48
2022-10-25T13:26:21.120Z,74.27
2022-10-25T13:28:55.671Z,74.15
2022-10-25T13:31:35.947Z,73.17
2022-10-25T13:34:16.012Z,72.98
2022-10-25T13:36:58.575Z,72.67
2022-10-25T13:39:46.773Z,73.17
2022-10-25T13:42:17.699Z,72.79
2022-10-25T13:44:56.839Z,72.15
2022-10-25T13:47:39.313Z,72.70
2022-10-25T13:50:27.685Z,73.18
2022-10-25T13:53:18.040Z,73.63
2022-10-25T13:55:55.175Z,73.80
2022-10-25T13:58:32.507Z,73.34
2022-10-25T14:01:26.968Z,73.58
2022-10-25T14:04:24.541Z,73.81
2022-10-25T14:06:54.192Z,74.46
2022-10-25T14:09:36.351Z,74.14
2022-10-25T14:12:07.825Z,74.27
2022-10-25T14:15:05.070Z,74.27
2022-10-25T14:17:34.155Z,74.88
2022-10-25T14:20:19.771Z,74.43
2022-10-25T14:22:58.098Z,74.43
2022-10-25T14:25:41.036Z,73.42
2022-10-25T14:28:27.018Z,73.61
2022-10-25T14:31:01.176Z,74.12
2022-10-25T14:33:51.539Z,75.14
2022-10-25T14:36:36.631Z,75.79
2022-10-25T14:39:36.339Z,76.51
2022-10-25T14:42:05.186Z,76.09
2022-10-25T14:44:47.018Z,76.59
2022-10-25T14:47:33.563Z,76.70
2022-10-25T14:50:02.930Z,76.63
2022-10-25T14:52:32.839Z,76.82
2022-10-25T14:55:07.536Z,76.85
2022-10-25T14:57:36.332Z,77.45
2022-10-25T15:00:06.669Z,77.83
2022-10-25T15:02:39.907Z,77.61
2022-10-25T15:05:15.222Z,78.07
2022-10-25T15:07:47.031Z,78.28
2022-10-25T15:10:43.800Z,78.44
2022-10-25T15:13:42.562Z,78.67
2022-10-25T15:16:41.945Z,79.28
2022-10-25T15:19:10.723Z,79.31
2022-10-25T15:21:41.903Z,79.40
2022-10-25T15:24:31.091Z,79.71
2022-10-25T15:27:05.892Z,79.53
2022-10-25T15:29:44.173Z,79.65
2022-10-25T15:32:25.461Z,80.42
2022-10-25T15:35:00.919Z,80.97
2022-10-25T15:37:30.688Z,81.31
2022-10-25T15:39:59.383Z,81.95
2022-10-25T15:42:28.203Z,82.13
2022-10-25T15:45:03.342Z,82.48
2022-10-25T15:47:32.591Z,82.73
2022-10-25T15:50:03.693Z,82.90
2022-10-25T15:52:32.278Z,83.33
2022-10-25T15:55:00.659Z,83.87
2022-10-25T15:57:29.117Z,84.23
2022-10-25T15:59:57.616Z,84.41
2022-10-25T16:02:28.602Z,84.43
2022-10-25T16:04:57.259Z,84.35
2022-10-25T16:07:25.692Z,84.95
2022-10-25T16:09:54.074Z,85.41
2022-10-25T16:12:28.547Z,85.81
2022-10-25T16:14:56.959Z,86.31
2022-10-25T16:17:25.367Z,86.75
2022-10-25T16:19:53.741Z,87.00
2022-10-25T16:22:22.191Z,87.61
2022-10-25T16:24:50.548Z,88.24
2022-10-25T16:27:18.868Z,88.62
2022-10-25T16:29:47.561Z,89.21
2022-10-25T16:32:18.559Z,89.14
2022-10-25T16:34:46.913Z,89.86
2022-10-25T16:37:15.242Z,90.02
2022-10-25T16:39:43.617Z,90.20
2022-10-25T16:42:35.507Z,90.58
2022-10-25T16:45:18.552Z,91.38
2022-10-25T16:47:46.996Z,91.61
2022-10-25T16:50:15.785Z,91.73
2022-10-25T16:52:44.284Z,92.13
2022-10-25T16:55:12.472Z,92.29
2022-10-25T16:57:40.952Z,92.66
2022-10-25T17:00:09.952Z,92.94
2022-10-25T17:02:39.356Z,93.19
2022-10-25T17:05:09.304Z,93.28
2022-10-25T17:10:10.598Z,93.57
2022-10-25T17:12:48.623Z,93.91
2022-10-25T17:15:17.603Z,94.26
2022-10-25T17:17:46.803Z,94.64
2022-10-25T17:20:17.400Z,94.69
2022-10-25T17:22:45.997Z,94.97
2022-10-25T17:25:14.452Z,95.27
2022-10-25T17:27:47.912Z,95.49
2022-10-25T17:30:17.397Z,95.73
2022-10-25T17:32:45.808Z,95.78
2022-10-25T17:35:14.501Z,96.10
2022-10-25T17:37:44.549Z,96.41
2022-10-25T17:40:14.801Z,96.67
2022-10-25T17:42:43.246Z,97.03
2022-10-25T17:45:11.835Z,97.31
2022-10-25T17:47:42.659Z,97.51
2022-10-25T17:50:12.921Z,97.74
2022-10-25T17:52:42.445Z,97.72
2022-10-25T17:55:11.940Z,97.85
2022-10-25T17:57:40.550Z,97.98
2022-10-25T18:00:09.786Z,98.38
2022-10-25T18:02:38.670Z,98.82
2022-10-25T18:05:22.587Z,99.14
2022-10-25T18:07:51.479Z,99.30
2022-10-25T18:10:20.641Z,99.44
2022-10-25T18:12:49.421Z,99.46
2022-10-25T18:15:18.236Z,99.51
2022-10-25T18:17:47.489Z,99.59
2022-10-25T18:20:16.267Z,99.68
2022-10-25T18:22:44.897Z,100.00
2022-10-25T18:25:13.391Z,99.78
2022-10-25T18:27:42.150Z,100.00
2022-10-25T18:30:11.327Z,100.00
2022-10-25T18:32:39.832Z,100.00
2022-10-25T18:35:08.958Z,100.00
2022-10-25T18:37:37.307Z,100.00
2022-10-25T18:40:06.186Z,100.00
2022-10-25T18:42:35.744Z,100.00
2022-10-25T18:45:05.824Z,100.00
2022-10-25T18:47:34.275Z,100.00
2022-10-25T18:50:03.326Z,100.00
2022-10-25T18:52:31.625Z,100.00
2022-10-25T18:55:00.008Z,100.00
2022-10-25T18:57:30.813Z,100.00
2022-10-25T18:59:59.205Z,100.00
2022-10-25T19:02:27.737Z,100.00
2022-10-25T19:04:56.278Z,100.00
2022-10-25T19:07:24.647Z,100.00
2022-10-25T19:09:53.012Z,100.00
2022-10-25T19:12:21.412Z,100.00
2022-10-25T19:14:49.749Z,100.00
2022-10-25T19:17:18.141Z,100.00
2022-10-25T19:19:46.684Z,100.00
2022-10-25T19:22:15.832Z,100.00
2022-10-25T19:24:44.256Z,100.00
2022-10-25T19:27:12.739Z,100.00
2022-10-25T19:29:40.913Z,100.00
2022-10-25T19:32:09.438Z,100.00
2022-10-25T19:34:38.917Z,100.00
2022-10-25T19:37:08.921Z,100.00
2022-10-25T19:39:37.994Z,100.00
2022-10-25T19:42:06.584Z,100.00
2022-10-25T19:44:35.110Z,100.00
2022-10-25T19:47:03.470Z,100.00
2022-10-25T19:49:31.793Z,100.00
2022-10-25T19:52:00.207Z,100.00
2022-10-25T19:54:28.623Z,100.00
2022-10-25T19:56:56.933Z,100.00
2022-10-25T19:59:25.396Z,100.00
2022-10-25T20:01:53.839Z,100.00
2022-10-25T20:04:22.239Z,100.00
2022-10-25T20:06:50.817Z,100.00
2022-10-25T20:09:19.286Z,100.00
2022-10-25T20:11:47.777Z,100.00
2022-10-25T20:14:16.108Z,100.00
2022-10-25T20:16:44.553Z,100.00
2022-10-25T20:19:14.928Z,100.00
2022-10-25T20:21:43.309Z,100.00
2022-10-25T20:24:11.975Z,100.00
2022-10-25T20:26:44.618Z,100.00
2022-10-25T20:29:22.758Z,100.00
2022-10-25T20:31:54.081Z,100.00
2022-10-25T20:34:22.026Z,100.00
2022-10-25T20:36:50.539Z,100.00
2022-10-25T20:39:18.886Z,100.00
2022-10-25T20:41:47.308Z,100.00
2022-10-25T20:44:15.693Z,100.00
2022-10-25T20:46:44.251Z,100.00
2022-10-25T20:49:12.630Z,100.00
2022-10-25T20:51:40.965Z,100.00
2022-10-25T20:54:10.253Z,100.00
2022-10-25T20:56:39.701Z,100.00
2022-10-25T20:59:08.902Z,100.00
2022-10-25T21:01:37.826Z,100.00
2022-10-25T21:04:07.018Z,100.00
2022-10-25T21:06:35.979Z,100.00
2022-10-25T21:09:04.998Z,100.00
2022-10-25T21:11:33.509Z,100.00
2022-10-25T21:14:01.836Z,100.00
2022-10-25T21:16:30.165Z,100.00
2022-10-25T21:18:58.490Z,100.00
2022-10-25T21:21:26.858Z,100.00
2022-10-25T21:23:59.445Z,100.00
2022-10-25T21:26:29.397Z,100.00
2022-10-25T21:28:58.279Z,100.00
2022-10-25T21:31:26.366Z,100.00
2022-10-25T21:33:58.661Z,100.00
2022-10-25T21:36:28.391Z,100.00
2022-10-25T21:38:56.830Z,100.00
2022-10-25T21:41:27.115Z,100.00
2022-10-25T21:43:56.999Z,100.00
2022-10-25T21:46:28.105Z,100.00
2022-10-25T21:48:56.873Z,100.00
2022-10-25T21:51:25.570Z,100.00
2022-10-25T21:53:55.286Z,100.00
2022-10-25T21:56:30.711Z,100.00
2022-10-25T22:01:54.298Z,100.00
2022-10-25T22:04:23.805Z,100.00
2022-10-25T22:06:52.251Z,100.00
2022-10-25T22:09:20.327Z,100.00
2022-10-25T22:11:52.240Z,100.00
2022-10-25T22:14:20.783Z,100.00
2022-10-25T22:16:48.931Z,100.00
2022-10-25T22:21:52.908Z,100.00
2022-10-25T22:24:21.137Z,100.00
2022-10-25T22:26:52.256Z,100.00
2022-10-25T22:29:20.767Z,100.00
2022-10-25T22:31:49.106Z,100.00
2022-10-25T22:34:17.611Z,100.00
2022-10-25T22:36:45.951Z,100.00
2022-10-25T22:39:14.275Z,100.00
2022-10-25T22:41:42.987Z,100.00
2022-10-25T22:44:11.693Z,100.00
2022-10-25T22:46:39.672Z,100.00
2022-10-25T22:49:09.978Z,100.00
2022-10-25T22:51:40.158Z,100.00
2022-10-25T22:54:09.096Z,100.00
2022-10-25T22:56:37.497Z,100.00
2022-10-25T22:59:07.355Z,100.00
2022-10-25T23:01:38.660Z,100.00
2022-10-25T23:04:10.156Z,100.00
2022-10-25T23:06:41.049Z,100.00
2022-10-25T23:09:11.725Z,100.00
2022-10-25T23:11:41.942Z,100.00
2022-10-25T23:14:14.866Z,100.00
2022-10-25T23:16:46.247Z,100.00
2022-10-25T23:19:14.288Z,100.00
2022-10-25T23:21:42.293Z,100.00
2022-10-25T23:24:11.304Z,100.00
2022-10-25T23:26:39.490Z,100.00
2022-10-25T23:29:07.445Z,100.00
2022-10-25T23:31:36.120Z,100.00
2022-10-25T23:34:04.510Z,100.00
2022-10-25T23:36:37.740Z,100.00
2022-10-25T23:39:08.419Z,100.00
2022-10-25T23:41:36.769Z,100.00
2022-10-25T23:44:05.410Z,100.00
2022-10-25T23:46:33.857Z,100.00
2022-10-25T23:49:02.256Z,100.00
2022-10-25T23:51:30.767Z,100.00
2022-10-25T23:53:59.095Z,100.00
2022-10-25T23:56:27.774Z,100.00
2022-10-25T23:58:56.169Z,100.00
